sensor_id;sensor_type;location;lat;lon;timestamp;pressure;altitude;pressure_sealevel;temperature;humidity
78562;BME280;68963;52.138;5.446;2023-04-06T00:00:33;101999.19;;;3.13;74.71
78562;BME280;68963;52.138;5.446;2023-04-06T00:02:59;101998.47;;;3.11;74.46
78562;BME280;68963;52.138;5.446;2023-04-06T00:05:26;101999.28;;;3.12;74.86
78562;BME280;68963;52.138;5.446;2023-04-06T00:07:54;101995.84;;;3.11;74.34
78562;BME280;68963;52.138;5.446;2023-04-06T00:10:22;102000.25;;;3.11;74.38
78562;BME280;68963;52.138;5.446;2023-04-06T00:12:48;101997.03;;;3.07;74.38
78562;BME280;68963;52.138;5.446;2023-04-06T00:15:15;101993.69;;;3.05;74.74
78562;BME280;68963;52.138;5.446;2023-04-06T00:17:41;101992.03;;;3.04;74.53
78562;BME280;68963;52.138;5.446;2023-04-06T00:20:08;101998.28;;;3.02;74.89
78562;BME280;68963;52.138;5.446;2023-04-06T00:22:35;101979.56;;;2.97;74.45
78562;BME280;68963;52.138;5.446;2023-04-06T00:25:02;101992.59;;;2.97;74.49
78562;BME280;68963;52.138;5.446;2023-04-06T00:27:28;101981.06;;;2.88;75.25
78562;BME280;68963;52.138;5.446;2023-04-06T00:29:55;101985.88;;;2.81;75.28
78562;BME280;68963;52.138;5.446;2023-04-06T00:32:21;101976.28;;;2.82;75.70
78562;BME280;68963;52.138;5.446;2023-04-06T00:34:48;101971.91;;;2.82;75.91
78562;BME280;68963;52.138;5.446;2023-04-06T00:37:14;101969.53;;;2.79;76.06
78562;BME280;68963;52.138;5.446;2023-04-06T00:39:41;101971.31;;;2.79;76.41
78562;BME280;68963;52.138;5.446;2023-04-06T00:42:11;101966.31;;;2.76;76.49
78562;BME280;68963;52.138;5.446;2023-04-06T00:44:41;101963.22;;;2.71;76.91
78562;BME280;68963;52.138;5.446;2023-04-06T00:47:08;101962.38;;;2.70;76.58
78562;BME280;68963;52.138;5.446;2023-04-06T00:49:34;101954.81;;;2.67;77.19
78562;BME280;68963;52.138;5.446;2023-04-06T00:52:01;101959.50;;;2.62;77.30
78562;BME280;68963;52.138;5.446;2023-04-06T00:54:29;101954.41;;;2.60;76.87
78562;BME280;68963;52.138;5.446;2023-04-06T00:56:56;101947.66;;;2.58;76.79
78562;BME280;68963;52.138;5.446;2023-04-06T00:59:23;101943.38;;;2.57;76.99
78562;BME280;68963;52.138;5.446;2023-04-06T01:01:49;101946.94;;;2.56;77.48
78562;BME280;68963;52.138;5.446;2023-04-06T01:04:16;101945.28;;;2.55;77.47
78562;BME280;68963;52.138;5.446;2023-04-06T01:06:43;101947.03;;;2.54;77.07
78562;BME280;68963;52.138;5.446;2023-04-06T01:09:09;101936.84;;;2.51;77.45
78562;BME280;68963;52.138;5.446;2023-04-06T01:11:36;101927.50;;;2.49;77.56
78562;BME280;68963;52.138;5.446;2023-04-06T01:14:03;101938.72;;;2.49;77.64
78562;BME280;68963;52.138;5.446;2023-04-06T01:16:29;101931.25;;;2.45;78.34
78562;BME280;68963;52.138;5.446;2023-04-06T01:18:56;101921.66;;;2.45;nan
78562;BME280;68963;52.138;5.446;2023-04-06T01:21:23;101926.03;;;2.45;78.71
78562;BME280;68963;52.138;5.446;2023-04-06T01:23:49;101929.47;;;2.45;78.41
78562;BME280;68963;52.138;5.446;2023-04-06T01:26:15;101923.25;;;2.48;78.65
78562;BME280;68963;52.138;5.446;2023-04-06T01:28:42;101917.91;;;2.49;78.95
78562;BME280;68963;52.138;5.446;2023-04-06T01:31:10;101916.88;;;2.52;78.72
78562;BME280;68963;52.138;5.446;2023-04-06T01:33:37;101917.69;;;2.52;79.38
78562;BME280;68963;52.138;5.446;2023-04-06T01:36:03;101919.47;;;2.52;79.16
78562;BME280;68963;52.138;5.446;2023-04-06T01:38:30;101911.88;;;2.49;79.40
78562;BME280;68963;52.138;5.446;2023-04-06T01:40:57;101902.84;;;2.54;79.10
78562;BME280;68963;52.138;5.446;2023-04-06T01:43:23;101907.78;;;2.57;79.00
78562;BME280;68963;52.138;5.446;2023-04-06T01:45:50;101903.19;;;2.61;79.15
78562;BME280;68963;52.138;5.446;2023-04-06T01:48:17;101901.56;;;2.60;79.53
78562;BME280;68963;52.138;5.446;2023-04-06T01:50:43;101898.00;;;2.61;79.41
78562;BME280;68963;52.138;5.446;2023-04-06T01:53:10;101892.50;;;2.65;79.24
78562;BME280;68963;52.138;5.446;2023-04-06T01:55:37;101892.59;;;2.64;79.25
78562;BME280;68963;52.138;5.446;2023-04-06T01:58:03;101886.69;;;2.62;79.69
78562;BME280;68963;52.138;5.446;2023-04-06T02:00:30;101889.03;;;2.65;79.84
78562;BME280;68963;52.138;5.446;2023-04-06T02:02:57;101890.72;;;2.66;80.31
78562;BME280;68963;52.138;5.446;2023-04-06T02:05:25;101885.50;;;2.66;80.19
78562;BME280;68963;52.138;5.446;2023-04-06T02:07:51;101882.78;;;2.67;80.37
78562;BME280;68963;52.138;5.446;2023-04-06T02:10:18;101869.09;;;2.65;81.10
78562;BME280;68963;52.138;5.446;2023-04-06T02:12:44;101861.97;;;2.67;81.05
78562;BME280;68963;52.138;5.446;2023-04-06T02:15:11;101858.56;;;2.67;80.60
78562;BME280;68963;52.138;5.446;2023-04-06T02:17:40;101863.28;;;2.62;81.25
78562;BME280;68963;52.138;5.446;2023-04-06T02:20:07;101858.91;;;2.62;80.99
78562;BME280;68963;52.138;5.446;2023-04-06T02:22:37;101860.31;;;2.66;80.69
78562;BME280;68963;52.138;5.446;2023-04-06T02:25:04;101852.31;;;2.70;80.60
78562;BME280;68963;52.138;5.446;2023-04-06T02:27:30;101855.63;;;2.72;80.08
78562;BME280;68963;52.138;5.446;2023-04-06T02:29:57;101853.75;;;2.74;79.96
78562;BME280;68963;52.138;5.446;2023-04-06T02:32:23;101856.34;;;2.74;80.12
78562;BME280;68963;52.138;5.446;2023-04-06T02:34:51;101850.31;;;2.73;79.49
78562;BME280;68963;52.138;5.446;2023-04-06T02:37:17;101844.16;;;2.74;79.27
78562;BME280;68963;52.138;5.446;2023-04-06T02:39:45;101856.94;;;2.77;79.38
78562;BME280;68963;52.138;5.446;2023-04-06T02:42:11;101849.03;;;2.79;78.79
78562;BME280;68963;52.138;5.446;2023-04-06T02:44:38;101846.31;;;2.80;78.74
78562;BME280;68963;52.138;5.446;2023-04-06T02:47:04;101842.66;;;2.83;78.87
78562;BME280;68963;52.138;5.446;2023-04-06T02:49:31;101843.47;;;2.83;79.00
78562;BME280;68963;52.138;5.446;2023-04-06T02:51:57;101827.78;;;2.85;78.11
78562;BME280;68963;52.138;5.446;2023-04-06T02:54:24;101835.34;;;2.88;78.69
78562;BME280;68963;52.138;5.446;2023-04-06T02:56:50;101836.88;;;2.90;78.78
78562;BME280;68963;52.138;5.446;2023-04-06T02:59:17;101826.47;;;2.90;78.78
78562;BME280;68963;52.138;5.446;2023-04-06T03:01:43;101823.88;;;2.90;78.46
78562;BME280;68963;52.138;5.446;2023-04-06T03:04:10;101821.03;;;2.94;78.31
78562;BME280;68963;52.138;5.446;2023-04-06T03:06:37;101816.44;;;2.97;78.37
78562;BME280;68963;52.138;5.446;2023-04-06T03:09:03;101824.03;;;3.00;77.88
78562;BME280;68963;52.138;5.446;2023-04-06T03:11:30;101811.75;;;3.02;78.58
78562;BME280;68963;52.138;5.446;2023-04-06T03:13:56;101814.22;;;3.04;78.43
78562;BME280;68963;52.138;5.446;2023-04-06T03:16:23;101810.06;;;3.01;78.42
78562;BME280;68963;52.138;5.446;2023-04-06T03:18:49;101810.19;;;3.00;78.22
78562;BME280;68963;52.138;5.446;2023-04-06T03:21:16;101807.22;;;3.04;78.58
78562;BME280;68963;52.138;5.446;2023-04-06T03:23:43;101808.66;;;3.08;78.27
78562;BME280;68963;52.138;5.446;2023-04-06T03:26:09;101808.66;;;3.08;77.76
78562;BME280;68963;52.138;5.446;2023-04-06T03:28:36;101805.13;;;3.09;77.82
78562;BME280;68963;52.138;5.446;2023-04-06T03:31:02;101805.00;;;3.11;78.22
78562;BME280;68963;52.138;5.446;2023-04-06T03:33:29;101805.22;;;3.08;77.54
78562;BME280;68963;52.138;5.446;2023-04-06T03:35:56;101796.47;;;3.09;77.57
78562;BME280;68963;52.138;5.446;2023-04-06T03:38:22;101804.28;;;3.09;78.13
78562;BME280;68963;52.138;5.446;2023-04-06T03:40:49;101800.63;;;3.11;77.88
78562;BME280;68963;52.138;5.446;2023-04-06T03:43:15;101795.41;;;3.11;77.69
78562;BME280;68963;52.138;5.446;2023-04-06T03:45:42;101790.22;;;3.11;77.86
78562;BME280;68963;52.138;5.446;2023-04-06T03:48:08;101788.34;;;3.13;77.91
78562;BME280;68963;52.138;5.446;2023-04-06T03:50:35;101787.16;;;3.18;77.42
78562;BME280;68963;52.138;5.446;2023-04-06T03:53:01;101784.19;;;3.22;77.69
78562;BME280;68963;52.138;5.446;2023-04-06T03:55:29;101784.06;;;3.24;77.51
78562;BME280;68963;52.138;5.446;2023-04-06T03:57:56;101788.34;;;3.25;76.87
78562;BME280;68963;52.138;5.446;2023-04-06T04:00:23;101787.41;;;3.26;77.69
78562;BME280;68963;52.138;5.446;2023-04-06T04:02:49;101778.88;;;3.24;77.15
78562;BME280;68963;52.138;5.446;2023-04-06T04:05:16;101789.19;;;3.25;77.72
78562;BME280;68963;52.138;5.446;2023-04-06T04:07:42;101783.25;;;3.23;77.55
78562;BME280;68963;52.138;5.446;2023-04-06T04:10:09;101781.59;;;3.22;77.28
78562;BME280;68963;52.138;5.446;2023-04-06T04:12:36;101784.34;;;3.21;77.58
78562;BME280;68963;52.138;5.446;2023-04-06T04:15:02;101780.03;;;3.20;77.20
78562;BME280;68963;52.138;5.446;2023-04-06T04:17:29;101779.22;;;3.19;77.22
78562;BME280;68963;52.138;5.446;2023-04-06T04:19:55;101773.31;;;3.17;77.10
78562;BME280;68963;52.138;5.446;2023-04-06T04:22:22;101779.44;;;3.16;77.18
78562;BME280;68963;52.138;5.446;2023-04-06T04:24:48;101779.81;;;3.11;77.63
78562;BME280;68963;52.138;5.446;2023-04-06T04:27:15;101780.63;;;3.12;77.33
78562;BME280;68963;52.138;5.446;2023-04-06T04:29:41;101781.59;;;3.11;77.21
78562;BME280;68963;52.138;5.446;2023-04-06T04:32:09;101780.84;;;3.09;77.27
78562;BME280;68963;52.138;5.446;2023-04-06T04:34:36;101780.03;;;3.08;77.26
78562;BME280;68963;52.138;5.446;2023-04-06T04:37:06;101779.34;;;3.06;77.28
78562;BME280;68963;52.138;5.446;2023-04-06T04:39:32;101781.94;;;3.06;77.38
78562;BME280;68963;52.138;5.446;2023-04-06T04:41:59;101784.63;;;3.05;77.69
78562;BME280;68963;52.138;5.446;2023-04-06T04:44:25;101776.97;;;3.03;77.92
78562;BME280;68963;52.138;5.446;2023-04-06T04:46:52;101775.53;;;2.99;77.61
78562;BME280;68963;52.138;5.446;2023-04-06T04:49:18;101775.53;;;2.99;77.69
78562;BME280;68963;52.138;5.446;2023-04-06T04:51:45;101779.31;;;2.95;78.14
78562;BME280;68963;52.138;5.446;2023-04-06T04:54:11;101779.19;;;2.97;77.81
78562;BME280;68963;52.138;5.446;2023-04-06T04:56:38;101774.09;;;2.95;77.85
78562;BME280;68963;52.138;5.446;2023-04-06T04:59:04;101768.91;;;2.95;77.64
78562;BME280;68963;52.138;5.446;2023-04-06T05:01:31;101778.13;;;2.99;77.81
78562;BME280;68963;52.138;5.446;2023-04-06T05:04:16;101767.50;;;3.02;77.64
78562;BME280;68963;52.138;5.446;2023-04-06T05:06:43;101766.66;;;3.02;76.99
78562;BME280;68963;52.138;5.446;2023-04-06T05:09:09;101766.53;;;3.03;76.83
78562;BME280;68963;52.138;5.446;2023-04-06T05:11:36;101769.03;;;3.05;77.55
78562;BME280;68963;52.138;5.446;2023-04-06T05:14:02;101771.41;;;3.08;77.03
78562;BME280;68963;52.138;5.446;2023-04-06T05:16:29;101768.44;;;3.12;77.01
78562;BME280;68963;52.138;5.446;2023-04-06T05:18:56;101764.66;;;3.17;77.10
78562;BME280;68963;52.138;5.446;2023-04-06T05:21:23;101773.91;;;3.21;77.34
78562;BME280;68963;52.138;5.446;2023-04-06T05:23:52;101763.97;;;3.26;77.13
78562;BME280;68963;52.138;5.446;2023-04-06T05:26:20;101773.19;;;3.30;77.16
78562;BME280;68963;52.138;5.446;2023-04-06T05:28:46;101770.13;;;3.36;77.42
78562;BME280;68963;52.138;5.446;2023-04-06T05:31:13;101763.63;;;3.42;77.02
78562;BME280;68963;52.138;5.446;2023-04-06T05:33:41;101763.03;;;3.49;76.25
78562;BME280;68963;52.138;5.446;2023-04-06T05:36:07;101760.78;;;3.56;76.03
78562;BME280;68963;52.138;5.446;2023-04-06T05:38:34;101761.25;;;3.61;76.34
78562;BME280;68963;52.138;5.446;2023-04-06T05:41:00;101758.16;;;3.67;75.61
78562;BME280;68963;52.138;5.446;2023-04-06T05:43:27;101763.59;;;3.75;75.58
78562;BME280;68963;52.138;5.446;2023-04-06T05:45:53;101754.34;;;3.82;75.65
78562;BME280;68963;52.138;5.446;2023-04-06T05:48:20;101754.81;;;3.87;74.90
78562;BME280;68963;52.138;5.446;2023-04-06T05:50:48;101754.31;;;3.94;74.50
78562;BME280;68963;52.138;5.446;2023-04-06T05:53:16;101748.38;;;4.03;74.60
78562;BME280;68963;52.138;5.446;2023-04-06T05:55:43;101754.78;;;4.10;74.47
78562;BME280;68963;52.138;5.446;2023-04-06T05:58:09;101748.22;;;4.16;74.86
78562;BME280;68963;52.138;5.446;2023-04-06T06:00:36;101748.81;;;4.19;73.98
78562;BME280;68963;52.138;5.446;2023-04-06T06:03:02;101749.38;;;4.23;73.88
78562;BME280;68963;52.138;5.446;2023-04-06T06:05:32;101747.34;;;4.26;73.65
78562;BME280;68963;52.138;5.446;2023-04-06T06:07:59;101750.53;;;4.30;73.45
78562;BME280;68963;52.138;5.446;2023-04-06T06:10:28;101746.72;;;4.34;73.83
78562;BME280;68963;52.138;5.446;2023-04-06T06:12:55;101744.03;;;4.35;73.54
78562;BME280;68963;52.138;5.446;2023-04-06T06:15:21;101744.59;;;4.39;72.88
78562;BME280;68963;52.138;5.446;2023-04-06T06:17:48;101747.78;;;4.43;73.41
78562;BME280;68963;52.138;5.446;2023-04-06T06:20:15;101744.94;;;4.46;72.74
78562;BME280;68963;52.138;5.446;2023-04-06T06:22:41;101743.59;;;4.51;72.44
78562;BME280;68963;52.138;5.446;2023-04-06T06:25:08;101744.03;;;4.56;72.58
78562;BME280;68963;52.138;5.446;2023-04-06T06:27:35;101741.06;;;4.61;72.69
78562;BME280;68963;52.138;5.446;2023-04-06T06:30:02;101746.84;;;4.65;72.17
78562;BME280;68963;52.138;5.446;2023-04-06T06:32:29;101744.09;;;4.66;71.71
78562;BME280;68963;52.138;5.446;2023-04-06T06:34:55;101742.78;;;4.72;71.91
78562;BME280;68963;52.138;5.446;2023-04-06T06:37:22;101741.56;;;4.76;71.26
78562;BME280;68963;52.138;5.446;2023-04-06T06:39:48;101749.72;;;4.82;71.67
78562;BME280;68963;52.138;5.446;2023-04-06T06:42:15;101739.47;;;4.91;71.82
78562;BME280;68963;52.138;5.446;2023-04-06T06:44:41;101747.34;;;5.00;70.88
78562;BME280;68963;52.138;5.446;2023-04-06T06:47:08;101744.53;;;5.13;70.98
78562;BME280;68963;52.138;5.446;2023-04-06T06:49:34;101739.22;;;5.24;71.58
78562;BME280;68963;52.138;5.446;2023-04-06T06:52:01;101743.28;;;5.38;70.83
78562;BME280;68963;52.138;5.446;2023-04-06T06:54:27;101737.81;;;5.51;70.74
78562;BME280;68963;52.138;5.446;2023-04-06T06:56:53;101735.91;;;5.63;69.95
78562;BME280;68963;52.138;5.446;2023-04-06T06:59:21;101740.22;;;5.73;70.51
78562;BME280;68963;52.138;5.446;2023-04-06T07:01:47;101743.41;;;5.87;70.11
78562;BME280;68963;52.138;5.446;2023-04-06T07:04:14;101734.50;;;5.89;69.40
78562;BME280;68963;52.138;5.446;2023-04-06T07:06:40;101738.38;;;5.95;68.26
78562;BME280;68963;52.138;5.446;2023-04-06T07:09:07;101731.91;;;5.99;68.16
78562;BME280;68963;52.138;5.446;2023-04-06T07:11:33;101736.72;;;6.03;68.68
78562;BME280;68963;52.138;5.446;2023-04-06T07:14:00;101733.00;;;6.06;68.88
78562;BME280;68963;52.138;5.446;2023-04-06T07:16:27;101731.38;;;6.05;68.78
78562;BME280;68963;52.138;5.446;2023-04-06T07:18:53;101729.72;;;6.04;67.98
78562;BME280;68963;52.138;5.446;2023-04-06T07:21:20;101733.28;;;6.03;68.59
78562;BME280;68963;52.138;5.446;2023-04-06T07:23:46;101727.50;;;5.99;68.45
78562;BME280;68963;52.138;5.446;2023-04-06T07:26:14;101722.97;;;6.01;68.58
78562;BME280;68963;52.138;5.446;2023-04-06T07:28:41;101715.78;;;6.03;69.67
78562;BME280;68963;52.138;5.446;2023-04-06T07:31:07;101719.25;;;6.04;68.75
78562;BME280;68963;52.138;5.446;2023-04-06T07:33:33;101714.97;;;6.03;67.85
78562;BME280;68963;52.138;5.446;2023-04-06T07:36:00;101720.75;;;6.07;68.72
78562;BME280;68963;52.138;5.446;2023-04-06T07:38:27;101727.50;;;6.09;68.07
78562;BME280;68963;52.138;5.446;2023-04-06T07:40:53;101722.00;;;6.12;67.99
78562;BME280;68963;52.138;5.446;2023-04-06T07:43:20;101722.41;;;6.17;67.40
78562;BME280;68963;52.138;5.446;2023-04-06T07:45:46;101722.84;;;6.22;67.49
78562;BME280;68963;52.138;5.446;2023-04-06T07:48:13;101717.06;;;6.28;67.97
78562;BME280;68963;52.138;5.446;2023-04-06T07:50:39;101724.47;;;6.33;67.18
78562;BME280;68963;52.138;5.446;2023-04-06T07:53:06;101724.75;;;6.40;67.35
78562;BME280;68963;52.138;5.446;2023-04-06T07:55:32;101725.84;;;6.47;66.92
78562;BME280;68963;52.138;5.446;2023-04-06T07:57:59;101718.28;;;6.53;66.46
78562;BME280;68963;52.138;5.446;2023-04-06T08:00:25;101717.44;;;6.63;67.02
78562;BME280;68963;52.138;5.446;2023-04-06T08:02:51;101720.88;;;6.73;67.12
78562;BME280;68963;52.138;5.446;2023-04-06T08:05:18;101723.47;;;6.83;66.04
78562;BME280;68963;52.138;5.446;2023-04-06T08:07:45;101721.94;;;6.90;66.14
78562;BME280;68963;52.138;5.446;2023-04-06T08:10:12;101720.25;;;6.98;66.04
78562;BME280;68963;52.138;5.446;2023-04-06T08:12:38;101718.72;;;7.06;65.42
78562;BME280;68963;52.138;5.446;2023-04-06T08:15:05;101718.00;;;7.13;65.14
78562;BME280;68963;52.138;5.446;2023-04-06T08:17:32;101725.84;;;7.23;64.42
78562;BME280;68963;52.138;5.446;2023-04-06T08:20:00;101723.06;;;7.24;64.92
78562;BME280;68963;52.138;5.446;2023-04-06T08:22:28;101724.41;;;7.29;63.85
78562;BME280;68963;52.138;5.446;2023-04-06T08:24:55;101722.50;;;7.31;64.33
78562;BME280;68963;52.138;5.446;2023-04-06T08:27:22;101718.91;;;7.32;64.50
78562;BME280;68963;52.138;5.446;2023-04-06T08:29:49;101717.88;;;7.42;64.48
78562;BME280;68963;52.138;5.446;2023-04-06T08:32:16;101722.41;;;7.50;64.48
78562;BME280;68963;52.138;5.446;2023-04-06T08:34:43;101715.75;;;7.56;64.50
78562;BME280;68963;52.138;5.446;2023-04-06T08:37:09;101706.22;;;7.55;63.91
78562;BME280;68963;52.138;5.446;2023-04-06T08:39:36;101716.28;;;7.59;65.12
78562;BME280;68963;52.138;5.446;2023-04-06T08:42:02;101718.19;;;7.67;65.42
78562;BME280;68963;52.138;5.446;2023-04-06T08:44:30;101711.50;;;7.72;64.55
78562;BME280;68963;52.138;5.446;2023-04-06T08:46:59;101706.78;;;7.76;64.47
78562;BME280;68963;52.138;5.446;2023-04-06T08:49:26;101701.94;;;7.81;64.39
78562;BME280;68963;52.138;5.446;2023-04-06T08:51:53;101703.13;;;7.87;64.29
78562;BME280;68963;52.138;5.446;2023-04-06T08:54:20;101708.47;;;7.95;64.35
78562;BME280;68963;52.138;5.446;2023-04-06T08:56:47;101703.59;;;8.00;64.82
78562;BME280;68963;52.138;5.446;2023-04-06T08:59:14;101699.13;;;8.10;64.74
78562;BME280;68963;52.138;5.446;2023-04-06T09:01:42;101708.03;;;8.17;64.14
78562;BME280;68963;52.138;5.446;2023-04-06T09:04:12;101709.06;;;8.24;63.61
78562;BME280;68963;52.138;5.446;2023-04-06T09:06:39;101712.88;;;8.30;63.47
78562;BME280;68963;52.138;5.446;2023-04-06T09:09:07;101711.47;;;8.36;62.85
78562;BME280;68963;52.138;5.446;2023-04-06T09:11:50;101711.56;;;8.44;62.78
78562;BME280;68963;52.138;5.446;2023-04-06T09:14:33;101714.78;;;8.56;63.32
78562;BME280;68963;52.138;5.446;2023-04-06T09:16:59;101718.44;;;8.63;62.77
78562;BME280;68963;52.138;5.446;2023-04-06T09:19:26;101718.19;;;8.74;63.12
78562;BME280;68963;52.138;5.446;2023-04-06T09:22:05;101720.38;;;8.87;62.89
78562;BME280;68963;52.138;5.446;2023-04-06T09:24:45;101716.03;;;8.95;62.53
78562;BME280;68963;52.138;5.446;2023-04-06T09:27:12;101715.75;;;9.07;62.36
78562;BME280;68963;52.138;5.446;2023-04-06T09:29:40;101718.72;;;9.12;61.91
78562;BME280;68963;52.138;5.446;2023-04-06T09:32:08;101715.31;;;9.19;62.54
78562;BME280;68963;52.138;5.446;2023-04-06T09:34:38;101717.47;;;9.24;62.36
78562;BME280;68963;52.138;5.446;2023-04-06T09:37:18;101710.09;;;9.28;62.62
78562;BME280;68963;52.138;5.446;2023-04-06T09:39:45;101714.41;;;9.37;62.48
78562;BME280;68963;52.138;5.446;2023-04-06T09:42:25;101708.47;;;9.35;62.15
78562;BME280;68963;52.138;5.446;2023-04-06T09:44:54;101705.34;;;9.31;62.14
78562;BME280;68963;52.138;5.446;2023-04-06T09:47:22;101713.41;;;9.30;62.36
78562;BME280;68963;52.138;5.446;2023-04-06T09:49:55;101719.00;;;9.35;61.83
78562;BME280;68963;52.138;5.446;2023-04-06T09:52:29;101718.06;;;9.44;62.31
78562;BME280;68963;52.138;5.446;2023-04-06T09:54:59;101714.81;;;9.50;61.81
78562;BME280;68963;52.138;5.446;2023-04-06T10:00:03;101721.94;;;9.74;62.09
78562;BME280;68963;52.138;5.446;2023-04-06T10:05:20;101718.56;;;9.98;61.75
78562;BME280;68963;52.138;5.446;2023-04-06T10:07:50;101706.53;;;10.12;62.13
78562;BME280;68963;52.138;5.446;2023-04-06T10:10:27;101703.75;;;10.22;62.16
78562;BME280;68963;52.138;5.446;2023-04-06T10:12:54;101701.47;;;10.27;62.22
78562;BME280;68963;52.138;5.446;2023-04-06T10:15:21;101705.41;;;10.31;62.95
78562;BME280;68963;52.138;5.446;2023-04-06T10:17:48;101713.50;;;10.37;62.63
78562;BME280;68963;52.138;5.446;2023-04-06T10:20:23;101722.72;;;10.42;62.61
78562;BME280;68963;52.138;5.446;2023-04-06T10:23:03;101708.06;;;10.39;63.45
78562;BME280;68963;52.138;5.446;2023-04-06T10:25:32;101719.44;;;10.39;62.80
78562;BME280;68963;52.138;5.446;2023-04-06T10:28:09;101719.09;;;10.51;63.73
78562;BME280;68963;52.138;5.446;2023-04-06T10:30:43;101711.03;;;10.60;64.25
78562;BME280;68963;52.138;5.446;2023-04-06T10:33:18;101710.19;;;10.52;64.17
78562;BME280;68963;52.138;5.446;2023-04-06T10:35:46;101707.25;;;10.47;65.32
78562;BME280;68963;52.138;5.446;2023-04-06T10:38:13;101705.63;;;10.46;65.80
78562;BME280;68963;52.138;5.446;2023-04-06T10:40:42;101705.94;;;10.43;65.96
78562;BME280;68963;52.138;5.446;2023-04-06T10:43:19;101714.97;;;10.40;66.36
78562;BME280;68963;52.138;5.446;2023-04-06T10:45:55;101711.03;;;10.28;68.88
78562;BME280;68963;52.138;5.446;2023-04-06T10:48:22;101706.75;;;10.27;70.09
78562;BME280;68963;52.138;5.446;2023-04-06T10:50:52;101704.28;;;10.25;70.76
78562;BME280;68963;52.138;5.446;2023-04-06T10:53:26;101704.28;;;10.25;71.57
78562;BME280;68963;52.138;5.446;2023-04-06T10:55:57;101704.44;;;10.24;73.11
78562;BME280;68963;52.138;5.446;2023-04-06T10:58:25;101710.03;;;10.21;73.11
78562;BME280;68963;52.138;5.446;2023-04-06T11:00:51;101697.50;;;10.06;73.42
78562;BME280;68963;52.138;5.446;2023-04-06T11:03:18;101698.78;;;9.94;74.95
78562;BME280;68963;52.138;5.446;2023-04-06T11:05:45;101700.41;;;9.79;74.93
78562;BME280;68963;52.138;5.446;2023-04-06T11:08:25;101703.19;;;9.69;75.18
78562;BME280;68963;52.138;5.446;2023-04-06T11:10:52;101698.22;;;9.58;76.09
78562;BME280;68963;52.138;5.446;2023-04-06T11:13:18;101704.97;;;9.60;76.87
78562;BME280;68963;52.138;5.446;2023-04-06T11:15:45;101690.66;;;9.63;77.22
78562;BME280;68963;52.138;5.446;2023-04-06T11:18:12;101698.69;;;9.53;77.46
78562;BME280;68963;52.138;5.446;2023-04-06T11:20:38;101693.25;;;9.47;79.27
78562;BME280;68963;52.138;5.446;2023-04-06T11:23:05;101700.44;;;9.36;79.98
78562;BME280;68963;52.138;5.446;2023-04-06T11:25:32;101693.06;;;9.40;80.75
78562;BME280;68963;52.138;5.446;2023-04-06T11:27:59;101691.44;;;9.47;81.24
78562;BME280;68963;52.138;5.446;2023-04-06T11:30:26;101686.16;;;9.39;81.91
78562;BME280;68963;52.138;5.446;2023-04-06T11:33:00;101686.31;;;9.37;80.90
78562;BME280;68963;52.138;5.446;2023-04-06T11:35:30;101686.50;;;9.44;81.29
78562;BME280;68963;52.138;5.446;2023-04-06T11:37:57;101692.75;;;9.43;80.41
78562;BME280;68963;52.138;5.446;2023-04-06T11:40:26;101680.75;;;9.49;81.34
78562;BME280;68963;52.138;5.446;2023-04-06T11:42:56;101682.56;;;9.48;81.15
78562;BME280;68963;52.138;5.446;2023-04-06T11:45:22;101681.75;;;9.48;80.54
78562;BME280;68963;52.138;5.446;2023-04-06T11:47:57;101675.81;;;9.46;81.81
78562;BME280;68963;52.138;5.446;2023-04-06T11:50:31;101669.91;;;9.43;81.81
78562;BME280;68963;52.138;5.446;2023-04-06T11:53:00;101660.69;;;9.39;80.70
78562;BME280;68963;52.138;5.446;2023-04-06T11:55:27;101657.06;;;9.40;80.73
78562;BME280;68963;52.138;5.446;2023-04-06T11:57:54;101666.47;;;9.43;81.35
78562;BME280;68963;52.138;5.446;2023-04-06T12:00:22;101653.94;;;9.37;81.46
78562;BME280;68963;52.138;5.446;2023-04-06T12:02:49;101665.78;;;9.41;82.23
78562;BME280;68963;52.138;5.446;2023-04-06T12:05:16;101658.22;;;9.38;82.40
78562;BME280;68963;52.138;5.446;2023-04-06T12:07:42;101658.41;;;9.44;82.39
78562;BME280;68963;52.138;5.446;2023-04-06T12:10:09;101644.63;;;9.59;82.56
78562;BME280;68963;52.138;5.446;2023-04-06T12:12:36;101640.88;;;9.70;81.77
78562;BME280;68963;52.138;5.446;2023-04-06T12:15:02;101650.91;;;9.74;81.89
78562;BME280;68963;52.138;5.446;2023-04-06T12:17:29;101646.63;;;9.73;81.72
78562;BME280;68963;52.138;5.446;2023-04-06T12:19:55;101645.16;;;9.79;80.90
78562;BME280;68963;52.138;5.446;2023-04-06T12:22:30;101649.91;;;9.59;81.06
78562;BME280;68963;52.138;5.446;2023-04-06T12:24:56;101646.56;;;9.49;82.01
78562;BME280;68963;52.138;5.446;2023-04-06T12:27:23;101635.09;;;9.58;82.47
78562;BME280;68963;52.138;5.446;2023-04-06T12:29:49;101638.06;;;9.63;81.83
78562;BME280;68963;52.138;5.446;2023-04-06T12:32:17;101630.97;;;9.55;83.29
78562;BME280;68963;52.138;5.446;2023-04-06T12:34:43;101639.00;;;9.46;82.65
78562;BME280;68963;52.138;5.446;2023-04-06T12:37:10;101638.19;;;9.45;83.87
78562;BME280;68963;52.138;5.446;2023-04-06T12:39:36;101642.00;;;9.51;83.71
78562;BME280;68963;52.138;5.446;2023-04-06T12:42:02;101643.81;;;9.50;84.35
78562;BME280;68963;52.138;5.446;2023-04-06T12:44:29;101633.44;;;9.49;84.64
78562;BME280;68963;52.138;5.446;2023-04-06T12:46:56;101631.28;;;9.44;84.86
78562;BME280;68963;52.138;5.446;2023-04-06T12:49:22;101632.41;;;9.41;84.68
78562;BME280;68963;52.138;5.446;2023-04-06T12:51:49;101633.22;;;9.34;85.18
78562;BME280;68963;52.138;5.446;2023-04-06T12:54:16;101626.63;;;9.30;84.50
78562;BME280;68963;52.138;5.446;2023-04-06T12:56:43;101618.38;;;9.16;85.25
78562;BME280;68963;52.138;5.446;2023-04-06T12:59:09;101626.22;;;9.08;86.14
78562;BME280;68963;52.138;5.446;2023-04-06T13:01:36;101621.97;;;9.07;86.37
78562;BME280;68963;52.138;5.446;2023-04-06T13:04:03;101618.03;;;9.11;86.31
78562;BME280;68963;52.138;5.446;2023-04-06T13:06:29;101617.88;;;9.13;86.01